Terminal Aerodrome Forecast
Issued by NWS

Home | Current Version | Previous Version | Text Only | Print | Product List | Glossary On
Versions: 1 2 3 4 5 6 7 8 9 10 11 12 13 14 15 16 17 18 19 20 21
751
FTUS43 KIND 231720
TAFLAF
TAF
KLAF 231720Z 2318/2418 11009KT P6SM BKN100
     FM240100 14009KT P6SM BKN090
     FM240200 16009KT P6SM BKN110 WS020/18040KT
     FM240500 19009KT P6SM SCT150 WS020/20045KT
     FM240900 20010G21KT P6SM SCT070 WS020/21045KT
     FM241300 20011G20KT P6SM BKN050
     FM241600 20014G27KT P6SM BKN025=

USA.gov is the U.S. government's official web portal to all federal, state and local government web resources and services.